Time;durP1;ratioP1;P1;durP2;ratioP2;P2;SDS_P1;SDS_P2;PMS_P1;PMS_P2;Temp;Humidity;BMP_temperature;BMP_pressure;BME280_temperature;BME280_humidity;BME280_pressure;Samples;Min_cycle;Max_cycle;Signal;HPM_P1;HPM_P2
2023/04/08 00:00:15;;;;;;;11.70;9.73;;;13.30;99.90;;;;;;4589674;19;20326;-29
2023/04/08 00:02:07;;;;;;;19.30;13.40;;;13.30;99.90;;;;;;4589994;19;20017;-30
2023/04/08 00:03:39;;;;;;;16.27;12.27;;;13.30;99.90;;;;;;4589055;19;20011;-30
2023/04/08 00:05:10;;;;;;;18.85;13.77;;;13.20;99.90;;;;;;4590010;19;20038;-30
2023/04/08 00:06:41;;;;;;;18.70;12.13;;;13.20;99.90;;;;;;4589904;19;20014;-30
2023/04/08 00:08:14;;;;;;;16.80;12.43;;;13.30;99.90;;;;;;4590245;19;20031;-30
2023/04/08 00:09:47;;;;;;;13.80;10.57;;;13.20;99.90;;;;;;4590767;19;20011;-30
2023/04/08 00:11:19;;;;;;;12.30;10.00;;;13.30;99.90;;;;;;4590461;19;21007;-30
2023/04/08 00:12:50;;;;;;;11.63;9.32;;;13.30;99.90;;;;;;4590009;19;20010;-30
2023/04/08 00:14:22;;;;;;;11.90;9.60;;;13.20;99.90;;;;;;4590068;19;20358;-30
2023/04/08 00:15:54;;;;;;;12.80;9.93;;;13.20;99.90;;;;;;4590545;19;20011;-30
2023/04/08 00:17:25;;;;;;;12.23;9.13;;;13.30;99.90;;;;;;4589992;19;20118;-30
2023/04/08 00:18:57;;;;;;;11.83;9.47;;;13.30;99.90;;;;;;4589474;19;20011;-30
2023/04/08 00:20:29;;;;;;;12.77;9.75;;;13.30;99.90;;;;;;4589953;19;20361;-30
2023/04/08 00:22:01;;;;;;;;;;;13.30;99.90;;;;;;4590961;19;20434;-30
2023/04/08 00:23:32;;;;;;;11.97;9.07;;;13.30;99.90;;;;;;4590781;19;19930;-30
2023/04/08 00:25:08;;;;;;;11.10;9.00;;;13.30;99.90;;;;;;4589612;19;20018;-30
2023/04/08 00:26:39;;;;;;;11.60;9.23;;;13.30;99.90;;;;;;4589595;19;20021;-30
2023/04/08 00:28:10;;;;;;;13.07;9.65;;;13.20;99.90;;;;;;4588727;19;20468;-30
2023/04/08 00:29:41;;;;;;;13.25;9.65;;;13.30;99.90;;;;;;4590343;19;20461;-30
2023/04/08 00:31:13;;;;;;;12.87;10.50;;;13.30;99.90;;;;;;4589764;19;20472;-30
2023/04/08 00:32:45;;;;;;;14.18;10.32;;;13.30;99.90;;;;;;4590157;19;20480;-29
2023/04/08 00:34:16;;;;;;;;;;;13.30;99.90;;;;;;4590268;19;20010;-30
2023/04/08 00:35:47;;;;;;;14.60;9.83;;;13.30;99.90;;;;;;4589331;19;19935;-30
2023/04/08 00:37:20;;;;;;;14.83;9.73;;;13.30;99.90;;;;;;4589705;19;20021;-30
2023/04/08 00:38:53;;;;;;;15.10;10.20;;;13.30;99.90;;;;;;4590004;19;20496;-30
2023/04/08 00:40:24;;;;;;;12.43;9.70;;;13.30;99.90;;;;;;4589330;19;20014;-30
2023/04/08 00:41:56;;;;;;;12.57;10.30;;;13.20;99.90;;;;;;4589200;19;20011;-30
2023/04/08 00:43:29;;;;;;;11.77;8.80;;;13.30;99.90;;;;;;4589719;19;20011;-30
2023/04/08 00:45:02;;;;;;;12.03;8.97;;;13.30;99.90;;;;;;4594236;19;20030;-30
2023/04/08 00:46:37;;;;;;;10.87;8.90;;;13.30;99.90;;;;;;4594333;19;20011;-30
2023/04/08 00:48:09;;;;;;;11.20;9.57;;;13.30;99.90;;;;;;4594101;19;20014;-30
2023/04/08 00:49:42;;;;;;;12.30;9.27;;;13.30;99.90;;;;;;4594109;19;20420;-30
2023/04/08 00:51:15;;;;;;;10.80;8.98;;;13.30;99.90;;;;;;4593369;19;20002;-30
2023/04/08 00:52:46;;;;;;;12.43;9.27;;;13.30;99.90;;;;;;4593059;19;20354;-30
2023/04/08 00:54:19;;;;;;;12.67;10.10;;;13.30;99.90;;;;;;4593781;19;20038;-30
2023/04/08 00:55:51;;;;;;;12.73;10.57;;;13.30;99.90;;;;;;4594254;19;20044;-30
2023/04/08 00:57:24;;;;;;;13.10;10.07;;;13.30;99.90;;;;;;4594140;19;20014;-30
2023/04/08 00:58:55;;;;;;;14.40;10.70;;;13.30;99.90;;;;;;4594703;19;20015;-30
2023/04/08 01:00:28;;;;;;;13.68;10.70;;;13.30;99.90;;;;;;4594136;19;20040;-30
2023/04/08 01:02:08;;;;;;;12.43;10.63;;;13.30;99.90;;;;;;4592947;19;20011;-30
2023/04/08 01:03:57;;;;;;;14.57;11.37;;;13.30;99.90;;;;;;4594349;19;20324;-30
2023/04/08 01:05:37;;;;;;;14.37;11.40;;;13.30;99.90;;;;;;4592450;19;20007;-30
2023/04/08 01:07:19;;;;;;;12.83;10.30;;;13.30;99.90;;;;;;4593486;19;20430;-30
2023/04/08 01:08:50;;;;;;;13.68;11.32;;;13.30;99.90;;;;;;4592650;19;20013;-30
2023/04/08 01:10:29;;;;;;;14.57;11.03;;;13.30;99.90;;;;;;4593474;19;20014;-30
2023/04/08 01:12:04;;;;;;;13.53;10.87;;;13.20;99.90;;;;;;4593237;19;20105;-30
2023/04/08 01:13:39;;;;;;;13.77;11.00;;;13.30;99.90;;;;;;4593464;19;20002;-29
2023/04/08 01:15:11;;;;;;;14.60;11.13;;;13.20;99.90;;;;;;4593041;19;20492;-30
2023/04/08 01:16:42;;;;;;;12.93;11.05;;;13.20;99.90;;;;;;4592806;19;20070;-30
2023/04/08 01:18:13;;;;;;;13.65;11.65;;;13.20;99.90;;;;;;4592742;19;20007;-29
2023/04/08 01:19:46;;;;;;;14.07;11.00;;;13.20;99.90;;;;;;4592715;19;20014;-30
2023/04/08 01:21:19;;;;;;;13.53;10.50;;;13.20;99.90;;;;;;4592224;19;20018;-30
2023/04/08 01:23:20;;;;;;;14.00;11.37;;;13.20;99.90;;;;;;4592461;19;20006;-30
2023/04/08 01:25:00;;;;;;;13.63;11.40;;;13.20;99.90;;;;;;4594057;19;20017;-30
2023/04/08 01:26:31;;;;;;;14.40;12.03;;;13.20;99.90;;;;;;4592150;19;20066;-30
2023/04/08 01:28:11;;;;;;;13.93;11.27;;;13.20;99.90;;;;;;4591853;19;20022;-30
2023/04/08 01:29:43;;;;;;;16.07;11.97;;;13.20;99.90;;;;;;4592063;19;20018;-30
2023/04/08 01:31:14;;;;;;;13.57;11.18;;;13.10;99.90;;;;;;4592346;19;20025;-30
2023/04/08 01:32:46;;;;;;;14.65;11.77;;;13.10;99.90;;;;;;4591943;19;20349;-30
2023/04/08 01:34:18;;;;;;;13.40;11.53;;;13.10;99.90;;;;;;4593120;19;20356;-30
2023/04/08 01:35:50;;;;;;;12.27;10.87;;;13.10;99.90;;;;;;4592332;19;20356;-30
2023/04/08 01:37:21;;;;;;;;;;;13.10;99.90;;;;;;4592948;19;20357;-30
2023/04/08 01:38:52;;;;;;;13.93;11.70;;;13.10;99.90;;;;;;4592804;19;19923;-30
2023/04/08 01:40:24;;;;;;;13.90;11.63;;;13.10;99.90;;;;;;4591720;19;20011;-30
2023/04/08 01:41:56;;;;;;;12.75;10.52;;;13.10;99.90;;;;;;4592086;19;20390;-30
2023/04/08 01:43:27;;;;;;;13.27;11.38;;;13.10;99.90;;;;;;4591929;19;20361;-30
2023/04/08 01:44:58;;;;;;;14.27;11.60;;;13.00;99.90;;;;;;4592774;19;20492;-30
2023/04/08 01:46:31;;;;;;;13.73;12.20;;;13.00;99.90;;;;;;4592684;19;20018;-30
2023/04/08 01:48:03;;;;;;;14.70;11.80;;;13.00;99.90;;;;;;4591683;19;20078;-30
2023/04/08 01:49:36;;;;;;;13.03;11.37;;;13.00;99.90;;;;;;4591706;19;20010;-30
2023/04/08 01:51:08;;;;;;;13.57;11.60;;;13.00;99.90;;;;;;4592352;19;20468;-30
2023/04/08 01:52:40;;;;;;;14.50;12.17;;;13.00;99.90;;;;;;4591620;19;20006;-30
2023/04/08 01:54:14;;;;;;;15.07;12.33;;;12.90;99.90;;;;;;4592267;19;20015;-30
2023/04/08 01:55:46;;;;;;;13.63;11.48;;;13.00;99.90;;;;;;4590318;19;19998;-30
2023/04/08 01:57:22;;;;;;;17.40;12.98;;;12.90;99.90;;;;;;4591904;19;20047;-30
2023/04/08 01:58:54;;;;;;;15.40;11.37;;;13.00;99.90;;;;;;4592266;19;20018;-30
2023/04/08 02:00:28;;;;;;;14.57;11.80;;;12.90;99.90;;;;;;4591846;19;20033;-30
2023/04/08 02:02:00;;;;;;;14.57;12.27;;;12.90;99.90;;;;;;4591527;19;20421;-30
2023/04/08 02:03:31;;;;;;;13.93;11.33;;;12.90;99.90;;;;;;4592042;19;20464;-30
2023/04/08 02:05:04;;;;;;;13.70;11.90;;;12.90;99.90;;;;;;4592243;19;20344;-30
2023/04/08 02:06:37;;;;;;;15.17;12.20;;;12.90;99.90;;;;;;4591978;19;20026;-30
2023/04/08 02:08:11;;;;;;;14.63;12.43;;;12.90;99.90;;;;;;4592631;19;21048;-30
2023/04/08 02:11:32;;;;;;;14.70;12.03;;;12.90;99.90;;;;;;4591556;19;20373;-30
2023/04/08 02:13:03;;;;;;;14.07;12.20;;;12.90;99.90;;;;;;4592475;19;20014;-30
2023/04/08 02:14:35;;;;;;;;;;;12.90;99.90;;;;;;4593903;19;20015;-30
2023/04/08 02:16:17;;;;;;;14.97;12.47;;;12.90;99.90;;;;;;4593100;19;19915;-30
2023/04/08 02:17:55;;;;;;;14.60;12.17;;;12.80;99.90;;;;;;4590944;19;20038;-30
2023/04/08 02:19:31;;;;;;;13.23;11.43;;;12.80;99.90;;;;;;4591047;19;20015;-30
2023/04/08 02:21:10;;;;;;;14.30;11.87;;;12.80;99.90;;;;;;4591119;19;20006;-30
2023/04/08 02:23:23;;;;;;;16.33;11.90;;;12.80;99.90;;;;;;4591450;19;20002;-30
2023/04/08 02:24:54;;;;;;;;;;;12.80;99.90;;;;;;4591785;19;20018;-30
2023/04/08 02:26:25;;;;;;;13.63;10.70;;;12.80;99.90;;;;;;4589832;19;19915;-30
2023/04/08 02:27:57;;;;;;;13.80;11.17;;;12.80;99.90;;;;;;4590097;19;20018;-30
2023/04/08 02:29:30;;;;;;;15.10;11.47;;;12.80;99.90;;;;;;4591032;19;20058;-30
2023/04/08 02:31:03;;;;;;;14.60;11.80;;;12.80;99.90;;;;;;4591153;19;20010;-30
2023/04/08 02:32:34;;;;;;;;;;;12.80;99.90;;;;;;4592184;19;20040;-30
2023/04/08 02:34:05;;;;;;;15.73;12.90;;;12.80;99.90;;;;;;4591150;19;20356;-30
2023/04/08 02:35:37;;;;;;;14.13;11.73;;;12.80;99.90;;;;;;4590959;19;20018;-30
2023/04/08 02:37:09;;;;;;;14.07;11.53;;;12.80;99.90;;;;;;4591667;19;20089;-30
2023/04/08 02:38:41;;;;;;;13.55;12.10;;;12.80;99.90;;;;;;4591003;19;20007;-30
2023/04/08 02:40:41;;;;;;;12.38;10.95;;;12.80;99.90;;;;;;4592209;19;20365;-30
2023/04/08 02:42:12;;;;;;;13.07;11.60;;;12.80;99.90;;;;;;4591090;19;20425;-30
2023/04/08 02:43:44;;;;;;;13.13;11.45;;;12.80;99.90;;;;;;4592552;19;19998;-30
2023/04/08 02:45:16;;;;;;;13.30;11.40;;;12.80;99.90;;;;;;4590686;19;20014;-30
2023/04/08 02:46:48;;;;;;;;;;;12.80;99.90;;;;;;4591461;19;20119;-30
2023/04/08 02:48:19;;;;;;;13.47;11.60;;;12.80;99.90;;;;;;4591513;19;19927;-30
2023/04/08 02:49:52;;;;;;;12.47;10.77;;;12.80;99.90;;;;;;4592002;19;20027;-30
2023/04/08 02:51:23;;;;;;;13.63;11.30;;;12.80;99.90;;;;;;4591894;19;20017;-30
2023/04/08 02:52:56;;;;;;;12.40;10.73;;;12.80;99.90;;;;;;4591555;19;20334;-30
2023/04/08 02:54:29;;;;;;;12.93;10.40;;;12.80;99.90;;;;;;4591888;19;20063;-30
2023/04/08 02:56:00;;;;;;;12.93;11.23;;;12.80;99.90;;;;;;4592247;19;20022;-30
2023/04/08 02:57:31;;;;;;;13.07;11.15;;;12.80;99.90;;;;;;4591421;19;20014;-30
2023/04/08 02:59:04;;;;;;;12.13;10.63;;;12.80;99.90;;;;;;4591582;19;20010;-30
2023/04/08 03:00:38;;;;;;;12.60;11.10;;;12.80;99.90;;;;;;4591984;19;20037;-30
2023/04/08 03:02:11;;;;;;;12.93;10.60;;;12.80;99.90;;;;;;4592564;19;20002;-30
2023/04/08 03:03:43;;;;;;;12.87;10.67;;;12.80;99.90;;;;;;4591661;19;20472;-30
2023/04/08 03:05:15;;;;;;;13.27;10.77;;;12.80;99.90;;;;;;4590496;19;20029;-30
2023/04/08 03:06:47;;;;;;;12.50;11.13;;;12.80;99.90;;;;;;4590293;19;20486;-30
2023/04/08 03:08:19;;;;;;;11.68;10.15;;;12.80;99.90;;;;;;4592024;19;20010;-30
2023/04/08 03:09:50;;;;;;;;;;;12.80;99.90;;;;;;4591926;19;20034;-30
2023/04/08 03:11:21;;;;;;;12.90;10.43;;;12.80;99.90;;;;;;4591655;19;19977;-30
2023/04/08 03:12:52;;;;;;;13.23;10.77;;;12.80;99.90;;;;;;4591685;19;20006;-30
2023/04/08 03:14:24;;;;;;;12.80;11.45;;;12.80;99.90;;;;;;4591856;19;20015;-30
2023/04/08 03:15:56;;;;;;;13.93;10.50;;;12.80;99.90;;;;;;4591040;19;20375;-30
2023/04/08 03:17:28;;;;;;;;;;;12.80;99.90;;;;;;4592347;19;20011;-30
2023/04/08 03:19:00;;;;;;;13.93;11.18;;;12.90;99.90;;;;;;4591624;19;19925;-30
2023/04/08 03:20:32;;;;;;;12.37;10.37;;;12.80;99.90;;;;;;4591384;19;20024;-30
2023/04/08 03:22:05;;;;;;;12.13;10.10;;;12.80;99.90;;;;;;4589957;19;20482;-30
2023/04/08 03:23:36;;;;;;;12.32;10.30;;;12.80;99.90;;;;;;4590656;19;20033;-30
2023/04/08 03:25:08;;;;;;;13.25;10.75;;;12.80;99.90;;;;;;4591127;19;20010;-30
2023/04/08 03:26:41;;;;;;;11.97;9.70;;;12.80;99.90;;;;;;4591137;19;20357;-30
2023/04/08 03:28:13;;;;;;;11.63;9.83;;;12.80;99.90;;;;;;4589839;19;20018;-30
2023/04/08 03:29:45;;;;;;;12.07;9.93;;;12.80;99.90;;;;;;4591101;19;20034;-30
2023/04/08 03:31:16;;;;;;;13.27;11.13;;;12.80;99.90;;;;;;4591074;19;20405;-30
2023/04/08 03:32:48;;;;;;;12.23;9.88;;;12.80;99.90;;;;;;4590682;19;20128;-30
2023/04/08 03:34:19;;;;;;;13.02;10.05;;;12.80;99.90;;;;;;4589317;19;20028;-30
2023/04/08 03:35:50;;;;;;;11.50;9.73;;;12.80;99.90;;;;;;4589613;19;20095;-30
2023/04/08 03:37:21;;;;;;;13.48;10.45;;;12.80;99.90;;;;;;4590855;19;20010;-30
2023/04/08 03:38:53;;;;;;;12.87;9.67;;;12.80;99.90;;;;;;4590833;19;20030;-30
2023/04/08 03:40:24;;;;;;;13.27;10.52;;;12.80;99.90;;;;;;4590956;19;20006;-30
2023/04/08 03:41:58;;;;;;;11.15;9.70;;;12.80;99.90;;;;;;4590696;19;20011;-30
2023/04/08 03:43:30;;;;;;;13.03;10.07;;;12.80;99.90;;;;;;4590726;19;20108;-30
2023/04/08 03:45:04;;;;;;;11.83;9.80;;;12.80;99.90;;;;;;4589311;19;20514;-30
2023/04/08 03:46:36;;;;;;;11.70;9.53;;;12.70;99.90;;;;;;4587106;19;20545;-30
2023/04/08 03:48:07;;;;;;;12.60;9.52;;;12.70;99.90;;;;;;4590207;19;20011;-30
2023/04/08 03:49:38;;;;;;;13.27;10.38;;;12.70;99.90;;;;;;4589710;19;20342;-30
2023/04/08 03:51:09;;;;;;;;;;;12.70;99.90;;;;;;4590410;19;20349;-30
2023/04/08 03:52:40;;;;;;;13.23;10.73;;;12.70;99.90;;;;;;4590038;19;19935;-30
2023/04/08 03:54:11;;;;;;;10.98;9.40;;;12.70;99.90;;;;;;4590720;19;20007;-30
2023/04/08 03:55:43;;;;;;;12.40;9.02;;;12.70;99.90;;;;;;4590295;19;20022;-30
2023/04/08 03:57:14;;;;;;;12.70;10.15;;;12.70;99.90;;;;;;4589932;19;20026;-30
2023/04/08 03:58:47;;;;;;;10.83;9.37;;;12.70;99.90;;;;;;4590079;19;20015;-30
2023/04/08 04:00:18;;;;;;;12.50;10.32;;;12.70;99.90;;;;;;4591294;19;20026;-30
2023/04/08 04:01:50;;;;;;;12.18;9.45;;;12.70;99.90;;;;;;4589204;19;20066;-30
2023/04/08 04:03:23;;;;;;;13.00;9.23;;;12.70;99.90;;;;;;4589722;19;20026;-30
2023/04/08 04:04:55;;;;;;;10.90;9.47;;;12.70;99.90;;;;;;4590260;19;20046;-30
2023/04/08 04:06:26;;;;;;;11.70;9.00;;;12.70;99.90;;;;;;4589545;19;20364;-30
2023/04/08 04:07:59;;;;;;;11.87;9.97;;;12.70;99.90;;;;;;4590225;19;20023;-30
2023/04/08 04:09:31;;;;;;;11.70;9.90;;;12.60;99.90;;;;;;4590169;19;20361;-30
2023/04/08 04:11:03;;;;;;;19.03;10.67;;;12.60;99.90;;;;;;4590022;19;20046;-30
2023/04/08 04:12:35;;;;;;;10.53;9.43;;;12.70;99.90;;;;;;4590619;19;20534;-30
2023/04/08 04:14:08;;;;;;;12.57;10.07;;;12.60;99.90;;;;;;4589923;19;20011;-30
2023/04/08 04:15:41;;;;;;;12.33;10.10;;;12.60;99.90;;;;;;4590449;19;20026;-30
2023/04/08 04:17:14;;;;;;;11.73;9.63;;;12.60;99.90;;;;;;4589394;19;20002;-30
2023/04/08 04:18:46;;;;;;;11.90;10.07;;;12.60;99.90;;;;;;4587597;19;20354;-30
2023/04/08 04:20:17;;;;;;;12.82;10.25;;;12.60;99.90;;;;;;4590125;19;20013;-30
2023/04/08 04:21:50;;;;;;;11.37;9.50;;;12.60;99.90;;;;;;4590510;19;20066;-30
2023/04/08 04:23:23;;;;;;;12.43;10.02;;;12.60;99.90;;;;;;4590220;19;20009;-30
2023/04/08 04:24:54;;;;;;;12.60;10.60;;;12.60;99.90;;;;;;4588731;19;20021;-30
2023/04/08 04:26:25;;;;;;;12.25;10.60;;;12.60;99.90;;;;;;4588717;19;20010;-30
2023/04/08 04:28:00;;;;;;;11.67;9.63;;;12.60;99.90;;;;;;4588386;19;20014;-30
2023/04/08 04:29:34;;;;;;;15.50;10.40;;;12.60;99.90;;;;;;4589504;19;20021;-30
2023/04/08 04:31:05;;;;;;;12.07;9.18;;;12.60;99.90;;;;;;4589484;19;20015;-30
2023/04/08 04:32:37;;;;;;;11.77;9.40;;;12.60;99.90;;;;;;4590224;19;20014;-30
2023/04/08 04:34:08;;;;;;;11.77;9.85;;;12.60;99.90;;;;;;4590457;19;20073;-30
2023/04/08 04:35:39;;;;;;;11.32;10.13;;;12.60;99.90;;;;;;4589987;19;20010;-30
2023/04/08 04:37:11;;;;;;;13.60;10.77;;;12.60;99.90;;;;;;4588481;19;20026;-30
2023/04/08 04:38:44;;;;;;;12.73;10.80;;;12.60;99.90;;;;;;4589093;19;20065;-30
2023/04/08 04:40:15;;;;;;;11.68;9.68;;;12.60;99.90;;;;;;4589979;19;20353;-30
2023/04/08 04:41:47;;;;;;;11.88;9.98;;;12.60;99.90;;;;;;4590355;19;20002;-30
2023/04/08 04:43:19;;;;;;;12.97;10.60;;;12.50;99.90;;;;;;4589693;19;20010;-30
2023/04/08 04:44:50;;;;;;;15.13;10.82;;;12.60;99.90;;;;;;4590325;19;20471;-30
2023/04/08 04:46:22;;;;;;;13.73;10.83;;;12.60;99.90;;;;;;4589142;19;19998;-30
2023/04/08 04:47:53;;;;;;;12.48;10.30;;;12.60;99.90;;;;;;4589416;19;20479;-30
2023/04/08 04:49:26;;;;;;;14.13;11.43;;;12.60;99.90;;;;;;4589664;19;20017;-30
2023/04/08 04:51:00;;;;;;;12.20;10.73;;;12.60;99.90;;;;;;4590041;19;21050;-30
2023/04/08 04:52:31;;;;;;;13.83;10.40;;;12.50;99.90;;;;;;4589836;19;20015;-30
2023/04/08 04:54:04;;;;;;;12.20;11.00;;;12.50;99.90;;;;;;4586863;19;20030;-30
2023/04/08 04:55:39;;;;;;;14.37;11.37;;;12.50;99.90;;;;;;4589015;19;20018;-30
2023/04/08 04:57:12;;;;;;;13.93;11.70;;;12.50;99.90;;;;;;4590035;19;20010;-30
2023/04/08 04:58:43;;;;;;;15.20;12.75;;;12.50;99.90;;;;;;4590293;19;20456;-30
2023/04/08 05:00:16;;;;;;;16.17;12.87;;;12.60;99.90;;;;;;4589166;19;20021;-30
2023/04/08 05:01:49;;;;;;;17.23;12.70;;;12.50;99.90;;;;;;4589382;19;20013;-30
2023/04/08 05:03:21;;;;;;;17.40;13.20;;;12.50;99.90;;;;;;4589342;19;20460;-30
2023/04/08 05:04:54;;;;;;;20.88;14.75;;;12.50;99.90;;;;;;4589961;19;20011;-30
2023/04/08 05:06:28;;;;;;;19.93;15.10;;;12.60;99.90;;;;;;4588006;19;20026;-30
2023/04/08 05:08:01;;;;;;;21.63;15.37;;;12.50;99.90;;;;;;4588151;19;20015;-31
2023/04/08 05:09:33;;;;;;;21.77;16.47;;;12.60;99.90;;;;;;4589531;19;20369;-30
2023/04/08 05:11:09;;;;;;;24.93;19.57;;;12.70;99.90;;;;;;4589271;19;20014;-30
2023/04/08 05:12:40;;;;;;;22.37;19.90;;;12.70;99.90;;;;;;4587073;19;20752;-29
2023/04/08 05:14:11;;;;;;;;;;;12.70;99.90;;;;;;4588041;19;20015;-30
2023/04/08 05:15:44;;;;;;;20.07;17.13;;;12.80;99.90;;;;;;4589786;19;20263;-30
2023/04/08 05:17:16;;;;;;;18.50;15.80;;;12.80;99.90;;;;;;4589850;19;20014;-30
2023/04/08 05:18:47;;;;;;;20.02;16.20;;;12.80;99.90;;;;;;4589077;19;20010;-30
2023/04/08 05:20:22;;;;;;;17.33;14.83;;;12.70;99.90;;;;;;4588855;19;20031;-29
2023/04/08 05:21:54;;;;;;;17.40;15.02;;;12.70;99.90;;;;;;4589158;19;20101;-30
2023/04/08 05:23:25;;;;;;;19.13;15.52;;;12.70;99.90;;;;;;4587967;19;20015;-30
2023/04/08 05:24:56;;;;;;;19.25;15.00;;;12.60;99.90;;;;;;4586520;19;20468;-30
2023/04/08 05:26:27;;;;;;;18.20;14.73;;;12.60;99.90;;;;;;4588026;19;20023;-30
2023/04/08 05:28:00;;;;;;;18.93;15.03;;;12.60;99.90;;;;;;4587523;19;20034;-30
2023/04/08 05:29:31;;;;;;;20.00;15.73;;;12.60;99.90;;;;;;4587944;19;20604;-30
2023/04/08 05:31:04;;;;;;;18.87;14.23;;;12.60;99.90;;;;;;4593521;19;20022;-30
2023/04/08 05:32:36;;;;;;;20.33;14.38;;;12.60;99.90;;;;;;4593647;19;20465;-30
2023/04/08 05:34:07;;;;;;;18.30;15.13;;;12.60;99.90;;;;;;4592995;19;20014;-30
2023/04/08 05:35:39;;;;;;;18.43;14.23;;;12.60;99.90;;;;;;4592955;19;20014;-30
2023/04/08 05:37:11;;;;;;;;;;;12.60;99.90;;;;;;4594174;19;20348;-30
2023/04/08 05:38:43;;;;;;;19.23;13.80;;;12.60;99.90;;;;;;4592907;19;19911;-30
2023/04/08 05:40:14;;;;;;;;;;;12.60;99.90;;;;;;4593611;19;20010;-30
2023/04/08 05:41:45;;;;;;;17.67;14.00;;;12.60;99.90;;;;;;4591977;19;19929;-30
2023/04/08 05:43:16;;;;;;;19.23;14.48;;;12.60;99.90;;;;;;4592097;19;22494;-30
2023/04/08 05:44:48;;;;;;;20.67;16.00;;;12.60;99.90;;;;;;4593519;19;20408;-30
2023/04/08 05:46:20;;;;;;;17.02;14.85;;;12.60;99.90;;;;;;4592298;19;20499;-30
2023/04/08 05:47:51;;;;;;;20.15;16.23;;;12.60;99.90;;;;;;4593053;19;20015;-30
2023/04/08 05:49:23;;;;;;;17.00;14.97;;;12.60;99.90;;;;;;4593277;19;20026;-30
2023/04/08 05:50:54;;;;;;;17.85;15.82;;;12.60;99.90;;;;;;4592608;19;20483;-30
2023/04/08 05:52:25;;;;;;;18.40;15.32;;;12.60;99.90;;;;;;4592565;19;20011;-30
2023/04/08 05:53:57;;;;;;;17.08;14.18;;;12.60;99.90;;;;;;4592362;19;20014;-30
2023/04/08 05:55:28;;;;;;;20.77;15.55;;;12.60;99.90;;;;;;4591832;19;20018;-30
2023/04/08 05:57:00;;;;;;;;;;;12.60;99.90;;;;;;4593020;19;20363;-30
2023/04/08 05:58:31;;;;;;;19.20;15.63;;;12.60;99.90;;;;;;4593531;19;19919;-30
2023/04/08 06:00:27;;;;;;;19.63;15.93;;;12.60;99.90;;;;;;4593018;19;20365;-30
2023/04/08 06:01:58;;;;;;;18.93;15.50;;;12.60;99.90;;;;;;4588593;19;20010;-30
2023/04/08 06:03:30;;;;;;;18.90;15.37;;;12.60;99.90;;;;;;4591976;19;20015;-30
2023/04/08 06:05:02;;;;;;;19.88;15.38;;;12.60;99.90;;;;;;4591107;19;20499;-30
2023/04/08 06:06:38;;;;;;;18.53;15.33;;;12.60;99.90;;;;;;4589034;19;20019;-30
2023/04/08 06:08:10;;;;;;;17.23;14.63;;;12.60;99.90;;;;;;4590682;19;20118;-30
2023/04/08 06:09:42;;;;;;;20.43;15.87;;;12.60;99.90;;;;;;4590511;19;20030;-30
2023/04/08 06:11:14;;;;;;;18.40;15.73;;;12.60;99.90;;;;;;4589599;19;20011;-30
2023/04/08 06:12:46;;;;;;;22.10;16.03;;;12.60;99.90;;;;;;4589234;19;20352;-30
2023/04/08 06:14:19;;;;;;;20.92;16.63;;;12.60;99.90;;;;;;4590560;19;20498;-31
2023/04/08 06:15:50;;;;;;;21.00;16.40;;;12.60;99.90;;;;;;4590652;19;20046;-30
2023/04/08 06:17:21;;;;;;;17.83;14.40;;;12.60;99.90;;;;;;4590509;19;20002;-29
2023/04/08 06:18:53;;;;;;;17.77;14.90;;;12.70;99.90;;;;;;4590223;19;20361;-30
2023/04/08 06:20:24;;;;;;;16.48;14.18;;;12.70;99.90;;;;;;4590674;19;20014;-28
2023/04/08 06:21:58;;;;;;;27.98;23.23;;;12.70;99.90;;;;;;4590567;19;20021;-29
2023/04/08 06:23:30;;;;;;;28.57;23.03;;;12.70;99.90;;;;;;4589956;19;20333;-30
2023/04/08 06:25:01;;;;;;;22.17;19.48;;;12.70;99.90;;;;;;4589742;19;20011;-30
2023/04/08 06:26:32;;;;;;;21.60;17.95;;;12.80;99.90;;;;;;4588247;19;20070;-30
2023/04/08 06:28:04;;;;;;;18.65;15.95;;;12.80;99.90;;;;;;4587994;19;20020;-30
2023/04/08 06:29:35;;;;;;;19.08;16.80;;;12.80;99.90;;;;;;4588645;19;20046;-30
2023/04/08 06:31:06;;;;;;;18.58;16.08;;;12.90;99.90;;;;;;4590527;19;20015;-30
2023/04/08 06:32:38;;;;;;;16.70;14.95;;;13.00;99.90;;;;;;4589957;19;20046;-29
2023/04/08 06:34:10;;;;;;;18.30;15.83;;;13.00;99.90;;;;;;4591436;19;20040;-30
2023/04/08 06:35:41;;;;;;;18.92;15.65;;;13.00;99.90;;;;;;4592210;19;20416;-30
2023/04/08 06:37:13;;;;;;;20.65;17.33;;;13.00;99.90;;;;;;4592063;19;20022;-30
2023/04/08 06:38:44;;;;;;;21.48;15.85;;;13.10;99.90;;;;;;4592005;19;20018;-30
2023/04/08 06:40:16;;;;;;;;;;;13.20;99.90;;;;;;4592465;19;20007;-30
2023/04/08 06:41:47;;;;;;;17.30;14.52;;;13.30;99.90;;;;;;4589280;19;19919;-30
2023/04/08 06:43:18;;;;;;;19.40;15.50;;;13.30;99.90;;;;;;4590952;19;20018;-30
2023/04/08 06:44:49;;;;;;;16.95;14.98;;;13.40;99.90;;;;;;4593117;19;20003;-30
2023/04/08 06:46:22;;;;;;;18.47;15.23;;;13.40;99.90;;;;;;4591197;19;20514;-30
2023/04/08 06:47:55;;;;;;;21.77;15.80;;;13.50;99.90;;;;;;4592141;19;20034;-30
2023/04/08 06:49:27;;;;;;;22.10;15.97;;;13.50;99.90;;;;;;4592040;19;20006;-30
2023/04/08 06:50:59;;;;;;;23.23;15.02;;;13.50;99.90;;;;;;4592553;19;20012;-30
2023/04/08 06:52:30;;;;;;;16.48;14.05;;;13.60;99.90;;;;;;4591066;19;20014;-30
2023/04/08 06:54:02;;;;;;;17.17;15.05;;;13.60;99.90;;;;;;4591537;19;20031;-30
2023/04/08 06:55:33;;;;;;;19.10;15.00;;;13.60;99.90;;;;;;4590828;19;20500;-30
2023/04/08 06:57:05;;;;;;;17.83;14.55;;;13.60;99.90;;;;;;4590708;19;20361;-30
2023/04/08 06:58:36;;;;;;;17.03;14.77;;;13.60;99.90;;;;;;4591592;19;20006;-30
2023/04/08 07:00:09;;;;;;;18.25;14.05;;;13.60;99.90;;;;;;4591063;19;20015;-30
2023/04/08 07:01:41;;;;;;;17.83;14.27;;;13.60;99.90;;;;;;4591062;19;20066;-30
2023/04/08 07:03:13;;;;;;;17.97;13.67;;;13.60;99.90;;;;;;4591299;19;20014;-30
2023/04/08 07:05:06;;;;;;;16.87;14.20;;;13.60;99.90;;;;;;4588995;19;20443;-30
2023/04/08 07:06:37;;;;;;;18.30;14.60;;;13.60;99.90;;;;;;4588476;19;20011;-30
2023/04/08 07:08:09;;;;;;;17.15;14.27;;;13.60;99.90;;;;;;4589649;19;20464;-30
2023/04/08 07:09:44;;;;;;;16.77;14.00;;;13.60;99.90;;;;;;4589270;19;20014;-30
2023/04/08 07:11:16;;;;;;;20.83;15.63;;;13.60;99.90;;;;;;4589390;19;20015;-30
2023/04/08 07:12:47;;;;;;;15.93;14.00;;;13.60;99.90;;;;;;4589225;19;20026;-30
2023/04/08 07:14:19;;;;;;;19.10;14.55;;;13.60;99.90;;;;;;4590728;19;20049;-30
2023/04/08 07:36:27;;;;;;;19.23;13.90;;;13.60;99.90;;;;;;4587912;19;20062;-30
2023/04/08 07:37:59;;;;;;;17.70;14.63;;;13.70;99.90;;;;;;4590235;19;20018;-30
2023/04/08 07:39:30;;;;;;;17.15;15.10;;;13.70;99.90;;;;;;4590630;19;20474;-30
2023/04/08 07:41:01;;;;;;;17.35;14.65;;;13.60;99.90;;;;;;4591340;19;20014;-30
2023/04/08 07:48:01;;;;;;;16.80;13.77;;;13.60;99.90;;;;;;4589661;19;20048;-30
2023/04/08 07:49:32;;;;;;;17.02;13.82;;;13.50;99.90;;;;;;4590869;19;20358;-31
2023/04/08 07:51:08;;;;;;;19.37;12.97;;;13.50;99.90;;;;;;4590272;19;20356;-29
2023/04/08 07:52:40;;;;;;;17.23;14.07;;;13.50;99.90;;;;;;4590663;19;20333;-30
2023/04/08 07:54:16;;;;;;;15.03;12.17;;;13.40;99.90;;;;;;4590596;19;20015;-30
2023/04/08 07:55:47;;;;;;;14.77;12.67;;;13.50;99.90;;;;;;4591093;19;20015;-30
2023/04/08 07:57:20;;;;;;;16.33;14.20;;;13.60;99.90;;;;;;4589207;19;20074;-30
2023/04/08 07:58:51;;;;;;;16.47;13.13;;;13.60;99.90;;;;;;4590054;19;20484;-30
2023/04/08 08:00:23;;;;;;;18.48;15.05;;;13.60;99.90;;;;;;4589420;19;20018;-30
2023/04/08 08:01:54;;;;;;;16.95;14.43;;;13.60;99.90;;;;;;4591492;19;20014;-30
2023/04/08 08:09:16;;;;;;;17.40;14.07;;;13.60;99.90;;;;;;4589404;19;20353;-30
2023/04/08 08:10:48;;;;;;;19.87;15.73;;;13.60;99.90;;;;;;4589228;19;20010;-30
2023/04/08 08:12:20;;;;;;;17.30;15.20;;;13.60;99.90;;;;;;4588937;19;20022;-30
2023/04/08 08:13:52;;;;;;;16.92;14.45;;;13.60;99.90;;;;;;4588507;19;20529;-30
2023/04/08 08:15:22;;;;;;;19.73;15.75;;;13.60;99.90;;;;;;4587252;19;20010;-30
2023/04/08 08:16:54;;;;;;;18.42;16.00;;;13.60;99.90;;;;;;4590221;19;20738;-30
2023/04/08 08:18:26;;;;;;;19.97;16.90;;;13.60;99.90;;;;;;4590598;19;20048;-30
2023/04/08 08:20:00;;;;;;;18.17;15.07;;;13.60;99.90;;;;;;4590587;19;20019;-30
2023/04/08 08:21:31;;;;;;;17.90;15.85;;;13.70;99.90;;;;;;4589746;19;20019;-30
2023/04/08 08:23:02;;;;;;;21.05;15.20;;;13.70;99.90;;;;;;4589174;19;20014;-30
2023/04/08 08:24:33;;;;;;;16.67;14.65;;;13.80;99.90;;;;;;4590462;19;20025;-30
2023/04/08 08:26:06;;;;;;;18.65;15.68;;;13.80;99.90;;;;;;4589714;19;20011;-30
2023/04/08 08:27:40;;;;;;;16.83;14.33;;;13.80;99.90;;;;;;4589203;19;20086;-30